Time;durP1;ratioP1;P1;durP2;ratioP2;P2;SDS_P1;SDS_P2;PMS_P1;PMS_P2;Temp;Humidity;BMP_temperature;BMP_pressure;BME280_temperature;BME280_humidity;BME280_pressure;Samples;Min_cycle;Max_cycle;Signal;HPM_P1;HPM_P2
2023/04/13 03:01:38;;;;;;;3.50;1.50;;;6.30;99.90;;;;;;5459981;23;20051;-77
2023/04/13 03:04:04;;;;;;;4.22;1.98;;;6.30;99.90;;;;;;4979047;28;20080;-76
2023/04/13 03:06:30;;;;;;;2.83;1.70;;;6.40;99.90;;;;;;4978787;28;20069;-77
2023/04/13 03:08:55;;;;;;;2.38;1.42;;;6.30;99.90;;;;;;4996661;28;20038;-75
2023/04/13 03:11:25;;;;;;;4.45;1.98;;;6.40;99.90;;;;;;4996203;28;20371;-74
2023/04/13 03:13:52;;;;;;;4.03;1.90;;;6.40;99.90;;;;;;4978526;28;20050;-79
2023/04/13 03:16:19;;;;;;;7.68;2.03;;;6.40;99.90;;;;;;4996576;28;20529;-75
2023/04/13 03:18:44;;;;;;;4.30;1.80;;;6.40;99.90;;;;;;4996184;28;20398;-77
2023/04/13 03:21:11;;;;;;;4.35;1.67;;;6.40;99.90;;;;;;4978366;28;20057;-77
2023/04/13 03:23:37;;;;;;;5.82;2.28;;;6.40;99.90;;;;;;4978383;28;20042;-76
2023/04/13 03:26:03;;;;;;;6.32;2.45;;;6.40;99.90;;;;;;4995933;28;20079;-79
2023/04/13 03:28:29;;;;;;;3.75;1.92;;;6.40;99.90;;;;;;4996031;28;20047;-76
2023/04/13 03:30:55;;;;;;;5.43;2.10;;;6.40;99.90;;;;;;4995977;28;20034;-78
2023/04/13 03:33:21;;;;;;;6.03;2.20;;;6.30;99.90;;;;;;4978275;28;20494;-77
2023/04/13 03:35:46;;;;;;;3.80;2.30;;;6.30;99.90;;;;;;4995713;28;20042;-75
2023/04/13 03:38:12;;;;;;;4.78;2.33;;;6.30;99.90;;;;;;4995644;28;20078;-79
2023/04/13 03:40:38;;;;;;;4.50;2.50;;;6.30;99.90;;;;;;4995816;28;20500;-76
2023/04/13 03:43:03;;;;;;;4.25;2.42;;;6.30;99.90;;;;;;4978302;28;20430;-75
2023/04/13 03:45:29;;;;;;;3.78;2.10;;;6.20;99.90;;;;;;4978142;28;20092;-74
2023/04/13 03:47:55;;;;;;;3.35;1.92;;;6.20;99.90;;;;;;4962065;28;20050;-76
2023/04/13 03:50:20;;;;;;;4.10;2.05;;;6.20;99.90;;;;;;4995208;28;20038;-76
2023/04/13 03:52:46;;;;;;;4.07;2.30;;;6.20;99.90;;;;;;4995668;28;20038;-76
2023/04/13 03:55:12;;;;;;;3.40;2.00;;;6.20;99.90;;;;;;4995532;28;20118;-78
2023/04/13 03:57:38;;;;;;;5.05;1.95;;;6.20;99.90;;;;;;4995213;28;20038;-75
2023/04/13 04:00:06;;;;;;;5.18;2.40;;;6.20;99.90;;;;;;4978918;28;20038;-78
2023/04/13 04:02:31;;;;;;;5.28;2.40;;;6.20;99.90;;;;;;4977813;28;20053;-78
2023/04/13 04:04:58;;;;;;;4.75;2.40;;;6.10;99.90;;;;;;4995341;28;20046;-77
2023/04/13 04:07:24;;;;;;;6.97;2.92;;;6.10;99.90;;;;;;4995247;28;20042;-73
2023/04/13 04:09:50;;;;;;;6.00;3.00;;;6.10;99.90;;;;;;4995630;28;20030;-74
2023/04/13 04:12:15;;;;;;;6.50;3.40;;;6.10;99.90;;;;;;4977847;28;20375;-78
2023/04/13 04:14:41;;;;;;;5.93;3.55;;;6.10;99.90;;;;;;4977499;28;20047;-74
2023/04/13 04:17:07;;;;;;;7.18;3.35;;;6.10;99.90;;;;;;4977813;28;20401;-75
2023/04/13 04:19:32;;;;;;;5.93;3.35;;;6.00;99.90;;;;;;4977501;28;20042;-77
2023/04/13 04:22:03;;;;;;;7.85;3.80;;;6.00;99.90;;;;;;4977258;28;20050;-77
2023/04/13 04:24:29;;;;;;;5.53;3.78;;;6.00;99.90;;;;;;4994844;28;20547;-74
2023/04/13 04:26:56;;;;;;;8.07;3.95;;;5.90;99.90;;;;;;4994888;28;20064;-77
2023/04/13 04:29:32;;;;;;;6.88;3.85;;;5.90;99.90;;;;;;4977619;28;20046;-74
2023/04/13 04:32:03;;;;;;;9.07;4.03;;;5.80;99.90;;;;;;4994501;28;20038;-77
2023/04/13 04:34:31;;;;;;;7.20;3.85;;;5.90;99.90;;;;;;4977180;28;20046;-74
2023/04/13 04:36:57;;;;;;;7.72;4.55;;;5.80;99.90;;;;;;4977523;28;20093;-77
2023/04/13 04:39:25;;;;;;;11.48;3.85;;;5.80;99.90;;;;;;4977122;28;20042;-76
2023/04/13 04:42:01;;;;;;;9.75;4.50;;;5.80;99.90;;;;;;4977009;28;20437;-77
2023/04/13 04:44:31;;;;;;;9.38;4.30;;;5.80;99.90;;;;;;4977153;28;20057;-74
2023/04/13 04:46:58;;;;;;;9.60;4.22;;;5.70;99.90;;;;;;4977424;28;20346;-75
2023/04/13 04:49:26;;;;;;;11.15;4.63;;;5.80;99.90;;;;;;4994518;28;20100;-79
2023/04/13 04:51:53;;;;;;;9.77;4.57;;;5.80;99.90;;;;;;4976980;28;20390;-77
2023/04/13 04:54:21;;;;;;;8.88;4.32;;;5.70;99.90;;;;;;4977067;28;20448;-79
2023/04/13 04:56:47;;;;;;;8.32;3.78;;;5.70;99.90;;;;;;4994327;28;20432;-76
2023/04/13 04:59:13;;;;;;;8.23;3.85;;;5.70;99.90;;;;;;4976604;28;20481;-77
2023/04/13 05:01:39;;;;;;;8.45;3.28;;;5.80;99.90;;;;;;4976429;28;20050;-75
2023/04/13 05:04:06;;;;;;;9.02;4.07;;;5.70;99.90;;;;;;4976726;28;20056;-77
2023/04/13 05:06:32;;;;;;;8.43;3.15;;;5.80;99.90;;;;;;4976456;28;20101;-77
2023/04/13 05:09:05;;;;;;;9.93;4.15;;;5.80;99.90;;;;;;4976461;28;20050;-75
2023/04/13 05:11:32;;;;;;;7.13;3.10;;;5.80;99.90;;;;;;4995148;28;20042;-76
2023/04/13 05:13:57;;;;;;;7.40;2.92;;;5.90;99.90;;;;;;4978275;28;20081;-75
2023/04/13 05:16:23;;;;;;;13.35;3.22;;;5.80;99.90;;;;;;4996700;28;20062;-76
2023/04/13 05:18:50;;;;;;;5.15;2.47;;;5.90;99.90;;;;;;4977450;28;20481;-75
2023/04/13 05:21:16;;;;;;;8.82;3.10;;;5.90;99.90;;;;;;4976363;28;20050;-75
2023/04/13 05:23:42;;;;;;;7.80;2.92;;;5.90;99.90;;;;;;4994120;28;20046;-77
2023/04/13 05:26:10;;;;;;;6.75;2.58;;;6.00;99.90;;;;;;4967984;28;20050;-75
2023/04/13 05:28:35;;;;;;;10.38;3.67;;;6.00;99.90;;;;;;4987785;28;20039;-78
2023/04/13 05:31:02;;;;;;;12.38;3.13;;;6.00;99.90;;;;;;4956458;28;20398;-75
2023/04/13 05:33:28;;;;;;;7.35;3.20;;;6.00;99.90;;;;;;4980815;28;20505;-76
2023/04/13 05:35:54;;;;;;;13.32;4.45;;;6.00;99.90;;;;;;4989035;28;20061;-75
2023/04/13 05:38:20;;;;;;;8.43;3.63;;;6.00;99.90;;;;;;4977240;28;20483;-75
2023/04/13 05:40:45;;;;;;;13.60;4.50;;;6.10;99.90;;;;;;4969744;28;20081;-78
2023/04/13 05:43:12;;;;;;;8.95;3.72;;;6.20;99.90;;;;;;4973731;28;20070;-77
2023/04/13 05:45:37;;;;;;;9.77;3.65;;;6.20;99.90;;;;;;4974348;28;20058;-74
2023/04/13 05:48:03;;;;;;;8.98;3.92;;;6.30;99.90;;;;;;4956658;28;20398;-76
2023/04/13 05:50:29;;;;;;;8.75;3.30;;;6.30;99.90;;;;;;4956500;28;20057;-74
2023/04/13 05:52:56;;;;;;;12.63;4.68;;;6.40;99.90;;;;;;4956402;28;20490;-78
2023/04/13 05:55:22;;;;;;;7.47;3.20;;;6.50;99.90;;;;;;4956358;28;20055;-76
2023/04/13 05:57:48;;;;;;;10.95;3.80;;;6.50;99.90;;;;;;4957240;28;20043;-76
2023/04/13 06:00:17;;;;;;;10.18;4.00;;;6.50;99.90;;;;;;4973955;28;20043;-76
2023/04/13 06:02:47;;;;;;;10.57;3.63;;;6.50;99.90;;;;;;4956652;28;20042;-76
2023/04/13 06:05:17;;;;;;;6.95;3.13;;;6.50;99.90;;;;;;4940459;28;20400;-75
2023/04/13 06:07:45;;;;;;;8.38;3.35;;;6.50;99.90;;;;;;4956417;28;20054;-80
2023/04/13 06:10:11;;;;;;;10.63;3.63;;;6.50;99.90;;;;;;4956595;28;20042;-78
2023/04/13 06:12:38;;;;;;;7.93;3.17;;;6.60;99.90;;;;;;4973681;28;20074;-77
2023/04/13 06:15:05;;;;;;;10.77;3.50;;;6.60;99.90;;;;;;4974093;28;20054;-74
2023/04/13 06:17:30;;;;;;;9.25;2.50;;;6.60;99.90;;;;;;4973354;28;20085;-73
2023/04/13 06:19:56;;;;;;;13.57;3.67;;;6.70;99.90;;;;;;4958574;28;20035;-76
2023/04/13 06:22:22;;;;;;;10.70;3.47;;;6.70;99.90;;;;;;4959463;28;20049;-75
2023/04/13 06:24:50;;;;;;;7.47;2.65;;;6.70;99.90;;;;;;4959819;28;20051;-75
2023/04/13 06:27:17;;;;;;;7.90;2.95;;;6.80;99.90;;;;;;4944083;28;20073;-73
2023/04/13 06:29:43;;;;;;;13.70;3.45;;;6.90;99.90;;;;;;4959879;28;20126;-74
2023/04/13 06:32:09;;;;;;;12.23;2.70;;;7.00;99.90;;;;;;4977207;28;20043;-74
2023/04/13 06:34:35;;;;;;;5.88;2.88;;;7.00;99.90;;;;;;4959855;28;20042;-75
2023/04/13 06:37:01;;;;;;;10.02;2.80;;;7.00;99.90;;;;;;4943622;28;20097;-74
2023/04/13 06:39:27;;;;;;;11.15;2.60;;;7.10;99.90;;;;;;4977285;28;20054;-75
2023/04/13 06:41:53;;;;;;;5.78;3.10;;;7.10;99.90;;;;;;4960015;28;20042;-75
2023/04/13 06:44:19;;;;;;;11.88;2.95;;;7.20;99.90;;;;;;4959691;28;20494;-73
2023/04/13 06:46:45;;;;;;;10.00;3.25;;;7.20;99.90;;;;;;4959486;28;20050;-74
2023/04/13 06:49:12;;;;;;;9.13;3.40;;;7.20;99.90;;;;;;4977031;28;20043;-76
2023/04/13 06:51:37;;;;;;;7.30;2.97;;;7.20;99.90;;;;;;4977072;28;20122;-73
2023/04/13 06:54:03;;;;;;;8.63;2.63;;;7.30;99.90;;;;;;4976848;28;20376;-75
2023/04/13 06:56:29;;;;;;;7.72;2.50;;;7.30;99.90;;;;;;4976865;28;20038;-74
2023/04/13 06:59:00;;;;;;;12.75;2.92;;;7.30;99.90;;;;;;4959347;28;20051;-76
2023/04/13 07:01:26;;;;;;;9.27;2.60;;;7.40;99.90;;;;;;4976778;28;20494;-74
2023/04/13 07:03:52;;;;;;;11.05;2.55;;;7.40;99.90;;;;;;4959649;28;20368;-73
2023/04/13 07:06:19;;;;;;;10.07;2.90;;;7.50;99.90;;;;;;4959433;28;20045;-76
2023/04/13 07:08:44;;;;;;;12.05;3.85;;;7.50;99.90;;;;;;4959595;28;20064;-72
2023/04/13 07:11:11;;;;;;;11.98;2.90;;;7.50;99.90;;;;;;4959377;28;20406;-73
2023/04/13 07:13:37;;;;;;;6.85;2.17;;;7.50;99.90;;;;;;4976793;28;20447;-76
2023/04/13 07:16:02;;;;;;;8.18;2.85;;;7.50;99.90;;;;;;4959048;28;20175;-75
2023/04/13 07:18:29;;;;;;;10.48;2.55;;;7.60;99.90;;;;;;4976394;28;20078;-74
2023/04/13 07:20:55;;;;;;;9.23;2.90;;;7.60;99.90;;;;;;4959023;28;20494;-75
2023/04/13 07:23:21;;;;;;;8.73;2.53;;;7.70;99.90;;;;;;4958956;28;20045;-74
2023/04/13 07:25:47;;;;;;;11.27;2.90;;;7.70;99.90;;;;;;4976357;28;20062;-73
2023/04/13 07:28:12;;;;;;;6.97;2.10;;;7.70;99.90;;;;;;4976276;28;20035;-72
2023/04/13 07:30:42;;;;;;;6.03;2.10;;;7.70;99.90;;;;;;4958493;28;20050;-74
2023/04/13 07:33:08;;;;;;;8.52;2.40;;;7.60;99.90;;;;;;4976031;28;20049;-78
2023/04/13 07:35:36;;;;;;;9.63;2.38;;;7.50;99.90;;;;;;4976024;28;20030;-74
2023/04/13 07:38:01;;;;;;;8.85;2.28;;;7.30;99.90;;;;;;4958607;28;20487;-74
2023/04/13 07:40:27;;;;;;;11.48;1.90;;;7.30;99.90;;;;;;4958545;28;20123;-73
2023/04/13 07:42:52;;;;;;;6.72;2.03;;;7.20;99.90;;;;;;4975897;28;20445;-77
2023/04/13 07:45:19;;;;;;;5.20;1.70;;;7.30;99.90;;;;;;4976128;28;20050;-75
2023/04/13 07:47:45;;;;;;;5.95;1.98;;;7.30;99.90;;;;;;4975907;28;20052;-77
2023/04/13 07:50:12;;;;;;;9.45;2.08;;;7.40;99.90;;;;;;4976038;28;20039;-73
2023/04/13 07:52:38;;;;;;;4.55;1.60;;;7.50;99.90;;;;;;4958583;28;20449;-74
2023/04/13 07:55:04;;;;;;;8.40;2.25;;;7.50;99.90;;;;;;4958356;28;20143;-76
2023/04/13 07:57:30;;;;;;;5.40;1.55;;;7.50;99.90;;;;;;4975897;28;20035;-72
2023/04/13 07:59:56;;;;;;;4.40;1.58;;;7.50;99.90;;;;;;4976002;28;20421;-77
2023/04/13 08:02:22;;;;;;;7.30;1.60;;;7.50;99.90;;;;;;4975508;28;20117;-72
2023/04/13 08:04:48;;;;;;;6.07;1.90;;;7.50;99.90;;;;;;4975574;28;20073;-76
2023/04/13 08:07:14;;;;;;;6.22;1.70;;;7.50;99.90;;;;;;4975647;28;20386;-72
2023/04/13 08:09:41;;;;;;;4.20;1.65;;;7.50;99.90;;;;;;4958334;28;20046;-76
2023/04/13 08:12:08;;;;;;;7.45;2.38;;;7.40;99.90;;;;;;4957924;28;20047;-75
2023/04/13 08:14:33;;;;;;;9.65;2.33;;;7.40;99.90;;;;;;4958896;28;20113;-76
2023/04/13 08:17:00;;;;;;;7.20;2.78;;;7.40;99.90;;;;;;4975737;28;20043;-78
2023/04/13 08:19:26;;;;;;;6.90;2.35;;;7.40;99.90;;;;;;4958492;28;20043;-77
2023/04/13 08:21:52;;;;;;;8.60;2.97;;;7.40;99.90;;;;;;4958160;28;20050;-76
2023/04/13 08:24:21;;;;;;;9.40;3.58;;;7.40;99.90;;;;;;4958254;28;20494;-78
2023/04/13 08:26:47;;;;;;;11.35;2.90;;;7.40;99.90;;;;;;4958281;28;20049;-76
2023/04/13 08:29:13;;;;;;;8.90;3.20;;;7.40;99.90;;;;;;4958080;28;20051;-77
2023/04/13 08:31:42;;;;;;;8.88;2.70;;;7.50;99.90;;;;;;4957712;28;20050;-78
2023/04/13 08:34:09;;;;;;;6.40;2.30;;;7.60;99.90;;;;;;4957921;28;20046;-79
2023/04/13 08:36:36;;;;;;;16.02;2.90;;;7.60;99.90;;;;;;4975482;28;20114;-77
2023/04/13 08:39:03;;;;;;;5.93;1.95;;;7.70;99.90;;;;;;4975649;28;20414;-76
2023/04/13 08:41:32;;;;;;;4.63;1.55;;;7.80;99.90;;;;;;4957257;28;20073;-76
2023/04/13 08:44:01;;;;;;;4.75;1.58;;;7.90;99.90;;;;;;4957736;28;20086;-75
2023/04/13 08:46:26;;;;;;;8.85;1.85;;;7.90;99.90;;;;;;4975088;28;20501;-76
2023/04/13 08:48:53;;;;;;;6.10;1.45;;;7.80;99.90;;;;;;4975541;28;20047;-77
2023/04/13 08:51:21;;;;;;;6.18;1.17;;;7.90;99.90;;;;;;4941677;28;20144;-78
2023/04/13 08:53:46;;;;;;;5.20;1.50;;;8.40;99.90;;;;;;4975433;28;20039;-76
2023/04/13 08:56:14;;;;;;;6.22;1.42;;;8.70;99.90;;;;;;4941461;28;20053;-75
2023/04/13 08:58:42;;;;;;;4.65;1.40;;;8.80;99.90;;;;;;4957582;28;20047;-78
2023/04/13 09:01:12;;;;;;;4.05;1.10;;;9.00;99.90;;;;;;4974704;28;20054;-77
2023/04/13 09:04:09;;;;;;;5.32;1.20;;;9.20;99.90;;;;;;4957241;28;20093;-75
2023/04/13 09:06:38;;;;;;;4.82;1.17;;;9.10;99.90;;;;;;4949634;28;20051;-75
2023/04/13 09:09:07;;;;;;;2.10;0.70;;;8.90;99.90;;;;;;4974552;28;20149;-78
2023/04/13 09:11:33;;;;;;;2.47;0.50;;;8.70;99.90;;;;;;4957003;28;20051;-75
2023/04/13 09:13:58;;;;;;;2.17;0.65;;;8.40;99.90;;;;;;4974597;28;20454;-78
2023/04/13 09:16:24;;;;;;;3.05;0.50;;;8.40;99.90;;;;;;4974793;28;20570;-79
2023/04/13 09:18:55;;;;;;;3.33;0.70;;;8.70;99.90;;;;;;4956952;28;20043;-77
2023/04/13 09:21:22;;;;;;;4.35;0.82;;;9.30;99.90;;;;;;4957026;28;20085;-79
2023/04/13 09:23:56;;;;;;;5.05;0.70;;;9.90;99.90;;;;;;4974939;28;20445;-74
2023/04/13 09:26:21;;;;;;;4.85;1.00;;;10.20;99.90;;;;;;4957005;28;20383;-76
2023/04/13 09:28:48;;;;;;;6.00;1.20;;;10.00;99.90;;;;;;4941202;28;20085;-77
2023/04/13 09:31:15;;;;;;;6.72;1.30;;;9.50;99.90;;;;;;4956753;28;20490;-75
2023/04/13 09:33:48;;;;;;;8.90;1.38;;;9.20;99.90;;;;;;4956904;28;20148;-76
2023/04/13 09:36:20;;;;;;;10.13;1.33;;;9.00;99.90;;;;;;4956757;28;20047;-78
2023/04/13 09:38:54;;;;;;;5.68;1.27;;;9.00;99.90;;;;;;4956929;28;20394;-75
2023/04/13 09:41:33;;;;;;;4.40;1.15;;;9.00;99.90;;;;;;4956616;28;20086;-78
2023/04/13 09:44:00;;;;;;;6.63;1.45;;;8.90;99.90;;;;;;4956738;28;20058;-73
2023/04/13 09:46:26;;;;;;;7.30;1.40;;;8.70;99.90;;;;;;4956645;28;20043;-78
2023/04/13 09:49:02;;;;;;;7.70;1.45;;;8.60;99.90;;;;;;4956846;28;20422;-77
2023/04/13 09:51:38;;;;;;;8.25;1.40;;;8.40;99.90;;;;;;4956462;28;20486;-76
2023/04/13 09:54:05;;;;;;;10.40;1.77;;;8.40;99.90;;;;;;4961729;28;20039;-76
2023/04/13 09:56:45;;;;;;;7.80;2.08;;;8.70;99.90;;;;;;4980263;28;20042;-75
2023/04/13 09:59:12;;;;;;;10.98;1.75;;;8.70;99.90;;;;;;4963045;28;20047;-78
2023/04/13 10:01:39;;;;;;;9.65;1.80;;;8.80;99.90;;;;;;4962958;28;20046;-76
2023/04/13 10:04:07;;;;;;;6.90;1.45;;;8.80;99.90;;;;;;4962781;28;20554;-76
2023/04/13 10:06:41;;;;;;;20.08;4.20;;;8.80;99.90;;;;;;4963198;28;20065;-77
2023/04/13 10:09:08;;;;;;;8.87;1.80;;;8.80;99.90;;;;;;4980257;28;20054;-75
2023/04/13 10:11:42;;;;;;;3.75;1.00;;;8.50;99.90;;;;;;4965025;28;20047;-76
2023/04/13 10:14:16;;;;;;;4.13;0.70;;;8.10;99.90;;;;;;4967591;28;20039;-77
2023/04/13 10:16:54;;;;;;;4.60;1.27;;;7.60;99.90;;;;;;4965077;28;20491;-78
2023/04/13 10:19:23;;;;;;;5.03;1.50;;;7.20;99.90;;;;;;4963347;28;20039;-80
2023/04/13 10:21:51;;;;;;;9.23;2.03;;;7.10;99.90;;;;;;4947078;28;20043;-79
2023/04/13 10:24:18;;;;;;;7.75;2.90;;;7.10;99.90;;;;;;4966041;28;20038;-80
2023/04/13 10:26:44;;;;;;;6.38;1.70;;;7.20;99.90;;;;;;4999077;28;20042;-79
2023/04/13 10:29:13;;;;;;;8.55;2.10;;;7.30;99.90;;;;;;4976045;28;20047;-80
2023/04/13 10:31:47;;;;;;;7.15;2.00;;;7.40;99.90;;;;;;4971407;28;20113;-81
2023/04/13 10:34:27;;;;;;;13.55;2.80;;;7.50;99.90;;;;;;4972415;28;20038;-77
2023/04/13 10:36:56;;;;;;;20.15;3.45;;;7.70;99.90;;;;;;4956139;28;20034;-81
2023/04/13 10:39:27;;;;;;;14.73;2.70;;;8.00;99.90;;;;;;4971508;28;20066;-81
2023/04/13 10:42:19;;;;;;;20.13;3.70;;;8.30;99.90;;;;;;4969421;28;20038;-80
2023/04/13 10:44:47;;;;;;;18.27;3.20;;;8.60;99.90;;;;;;4959385;28;20065;-78
2023/04/13 10:47:14;;;;;;;10.02;1.90;;;9.00;99.90;;;;;;4962770;28;20047;-81
2023/04/13 10:49:41;;;;;;;9.68;2.05;;;9.20;99.90;;;;;;4963055;28;20051;-80
2023/04/13 10:52:09;;;;;;;15.95;2.35;;;9.30;99.90;;;;;;4962680;28;20101;-78
2023/04/13 10:54:36;;;;;;;16.88;2.55;;;9.40;99.90;;;;;;4980056;28;20118;-78
2023/04/13 10:57:05;;;;;;;13.43;2.38;;;9.50;99.90;;;;;;4962663;28;20038;-79
2023/04/13 10:59:48;;;;;;;9.90;1.98;;;9.60;99.90;;;;;;4946937;28;20097;-80
2023/04/13 11:02:16;;;;;;;12.65;2.20;;;9.60;99.90;;;;;;4976952;28;20053;-80
2023/04/13 11:04:47;;;;;;;14.55;2.30;;;9.60;99.90;;;;;;4963584;28;20084;-78
2023/04/13 11:07:15;;;;;;;14.68;1.90;;;9.70;99.90;;;;;;4979170;28;20050;-79
2023/04/13 11:09:42;;;;;;;11.85;2.10;;;9.80;99.90;;;;;;4996853;28;20050;-82
2023/04/13 11:12:10;;;;;;;6.95;1.50;;;9.90;99.90;;;;;;4978904;28;20054;-80
2023/04/13 11:14:37;;;;;;;14.88;2.40;;;9.90;99.90;;;;;;4979220;28;20096;-81
2023/04/13 11:17:17;;;;;;;11.95;2.25;;;10.00;99.90;;;;;;4979162;28;20042;-82
2023/04/13 11:19:50;;;;;;;7.82;1.50;;;9.90;99.90;;;;;;4979265;28;20113;-81
2023/04/13 11:22:17;;;;;;;9.48;2.28;;;10.00;99.90;;;;;;4979038;28;20390;-79
2023/04/13 11:24:45;;;;;;;10.40;1.95;;;10.00;99.90;;;;;;4996237;28;20057;-79
2023/04/13 11:27:23;;;;;;;9.80;1.85;;;10.00;99.90;;;;;;4978987;28;20152;-80
2023/04/13 11:30:04;;;;;;;13.32;2.70;;;10.00;99.90;;;;;;4978808;28;20494;-82
2023/04/13 11:32:34;;;;;;;8.02;2.10;;;9.80;99.90;;;;;;4978849;28;20125;-80
2023/04/13 11:35:10;;;;;;;7.50;1.40;;;9.90;99.90;;;;;;4978432;28;20163;-81
2023/04/13 11:37:38;;;;;;;13.38;2.38;;;9.90;99.90;;;;;;4978739;28;20038;-83
2023/04/13 11:40:11;;;;;;;11.30;1.95;;;9.90;99.90;;;;;;4978790;28;20100;-81
2023/04/13 11:42:45;;;;;;;8.18;2.17;;;10.00;99.90;;;;;;4978208;28;20132;-83
2023/04/13 11:45:14;;;;;;;12.33;2.53;;;10.10;99.90;;;;;;4978515;28;20176;-83
2023/04/13 11:47:40;;;;;;;9.63;2.47;;;10.10;99.90;;;;;;4978343;28;20050;-82
2023/04/13 11:50:07;;;;;;;11.25;1.60;;;10.20;99.90;;;;;;4978491;28;20519;-80
2023/04/13 11:52:34;;;;;;;6.03;1.13;;;10.10;99.90;;;;;;4978149;28;20051;-80
2023/04/13 11:55:03;;;;;;;9.45;1.55;;;10.00;99.90;;;;;;4978375;28;20043;-80
2023/04/13 11:57:29;;;;;;;11.65;1.88;;;10.00;99.90;;;;;;4978113;28;20096;-80
2023/04/13 11:59:55;;;;;;;7.55;1.52;;;10.00;99.90;;;;;;4978718;28;20053;-82
2023/04/13 12:02:29;;;;;;;13.90;1.90;;;9.90;99.90;;;;;;4978221;28;20046;-79
2023/04/13 12:04:55;;;;;;;12.23;1.60;;;9.90;99.90;;;;;;4978711;28;20106;-81
2023/04/13 12:07:21;;;;;;;6.05;1.20;;;9.80;99.90;;;;;;4978410;28;20447;-79
2023/04/13 12:09:50;;;;;;;11.40;3.28;;;9.70;99.90;;;;;;4978013;28;20081;-83
2023/04/13 12:12:25;;;;;;;14.80;2.00;;;9.60;99.90;;;;;;4978439;28;20059;-81
2023/04/13 12:14:56;;;;;;;15.93;1.95;;;9.60;99.90;;;;;;4978227;28;20042;-83
2023/04/13 12:17:32;;;;;;;14.75;2.72;;;9.60;99.90;;;;;;4977017;28;20134;-79
2023/04/13 12:19:59;;;;;;;13.68;2.50;;;9.60;99.90;;;;;;4977863;28;20121;-79
2023/04/13 12:22:38;;;;;;;13.73;2.20;;;9.70;99.90;;;;;;4978050;28;20058;-80
2023/04/13 12:25:21;;;;;;;9.35;1.67;;;9.80;99.90;;;;;;4977794;28;20089;-79
2023/04/13 12:27:53;;;;;;;11.32;1.75;;;9.90;99.90;;;;;;4995206;28;20532;-79
2023/04/13 12:30:21;;;;;;;8.93;1.58;;;10.10;99.90;;;;;;4977451;28;20091;-83
2023/04/13 12:32:49;;;;;;;9.57;2.22;;;10.20;99.90;;;;;;4977605;28;20117;-82
2023/04/13 12:35:15;;;;;;;9.10;1.90;;;10.30;99.90;;;;;;4977815;28;20078;-84
2023/04/13 12:37:45;;;;;;;8.20;1.58;;;10.50;99.90;;;;;;4977542;28;20465;-82
2023/04/13 12:40:14;;;;;;;11.82;1.80;;;10.80;99.90;;;;;;4978112;28;20046;-79
2023/04/13 12:42:42;;;;;;;10.23;2.90;;;10.90;99.90;;;;;;4977619;28;20075;-78
2023/04/13 12:45:08;;;;;;;13.40;2.63;;;11.20;99.90;;;;;;4977277;28;20094;-82
2023/04/13 12:47:35;;;;;;;9.70;1.80;;;11.30;99.90;;;;;;4977398;28;20422;-81
2023/04/13 12:50:05;;;;;;;10.57;1.90;;;11.50;99.90;;;;;;4978677;28;20050;-81
2023/04/13 12:52:31;;;;;;;12.95;2.72;;;11.20;99.90;;;;;;4961007;28;20550;-80
2023/04/13 12:55:01;;;;;;;16.33;2.47;;;11.20;99.90;;;;;;4978676;28;20096;-78
2023/04/13 12:57:27;;;;;;;13.85;1.88;;;11.00;99.90;;;;;;4977534;28;20382;-81
2023/04/13 12:59:54;;;;;;;11.13;1.70;;;10.80;99.90;;;;;;4977033;28;20049;-83
2023/04/13 13:02:24;;;;;;;10.20;1.70;;;10.60;99.90;;;;;;4976987;28;20137;-81
2023/04/13 13:04:50;;;;;;;10.88;2.15;;;10.60;99.90;;;;;;4978325;28;20355;-83
2023/04/13 13:07:19;;;;;;;7.90;1.52;;;10.50;99.90;;;;;;4994521;28;20047;-80
2023/04/13 13:09:44;;;;;;;9.07;1.88;;;10.40;99.90;;;;;;4977287;28;20054;-82
2023/04/13 13:12:10;;;;;;;11.38;2.75;;;10.20;99.90;;;;;;4977587;28;20042;-78
2023/04/13 13:14:36;;;;;;;10.45;1.83;;;10.20;99.90;;;;;;4977215;28;20368;-80
2023/04/13 13:17:02;;;;;;;12.23;1.98;;;10.20;99.90;;;;;;4977255;28;20096;-78
2023/04/13 13:19:28;;;;;;;11.30;1.90;;;10.20;99.90;;;;;;4977585;28;20038;-79
2023/04/13 13:21:54;;;;;;;14.52;2.50;;;10.20;99.90;;;;;;4961121;28;20141;-81
2023/04/13 13:24:20;;;;;;;9.82;2.05;;;10.30;99.90;;;;;;4976970;28;20430;-80
2023/04/13 13:26:46;;;;;;;11.45;2.30;;;10.30;99.90;;;;;;4994182;28;20034;-79
2023/04/13 13:29:11;;;;;;;12.18;1.95;;;10.50;99.90;;;;;;4976658;28;20411;-78
2023/04/13 13:31:37;;;;;;;8.70;1.90;;;10.60;99.90;;;;;;4976640;28;20084;-81
2023/04/13 13:34:02;;;;;;;8.02;1.85;;;10.70;99.90;;;;;;4976969;28;20038;-82
2023/04/13 13:36:30;;;;;;;6.18;1.90;;;10.80;99.90;;;;;;4977091;28;20046;-80
2023/04/13 13:38:56;;;;;;;8.45;1.25;;;10.90;99.90;;;;;;4977552;28;20089;-82
2023/04/13 13:41:24;;;;;;;6.15;1.35;;;11.00;99.90;;;;;;4976866;28;20045;-78
2023/04/13 13:43:50;;;;;;;8.43;1.67;;;11.00;99.90;;;;;;4960446;28;20466;-79
2023/04/13 13:46:16;;;;;;;10.10;1.92;;;11.00;99.90;;;;;;4960536;28;20101;-80
2023/04/13 13:48:41;;;;;;;11.77;1.40;;;10.90;99.90;;;;;;4960464;28;20045;-79
2023/04/13 13:51:07;;;;;;;9.63;2.20;;;10.80;99.90;;;;;;4976453;28;20050;-80
2023/04/13 13:53:32;;;;;;;6.93;1.85;;;10.70;99.90;;;;;;4976304;28;20040;-78
2023/04/13 13:55:58;;;;;;;11.88;2.42;;;10.70;99.90;;;;;;4960418;28;20056;-79
2023/04/13 13:58:23;;;;;;;9.68;1.40;;;10.70;99.90;;;;;;4976389;28;20042;-81
2023/04/13 14:00:49;;;;;;;7.47;1.50;;;10.70;99.90;;;;;;4976237;28;20046;-82
2023/04/13 14:03:15;;;;;;;11.73;1.60;;;10.70;99.90;;;;;;4976391;28;20053;-78
2023/04/13 14:05:44;;;;;;;9.05;1.75;;;10.70;99.90;;;;;;4993882;28;20438;-80
2023/04/13 14:08:10;;;;;;;12.32;1.52;;;10.70;99.90;;;;;;4960418;28;20041;-82
2023/04/13 14:10:35;;;;;;;7.70;1.52;;;10.60;99.90;;;;;;4976195;28;20042;-81
2023/04/13 14:13:01;;;;;;;9.88;1.55;;;10.70;99.90;;;;;;4975977;28;20046;-78
2023/04/13 14:15:27;;;;;;;6.63;1.77;;;10.70;99.90;;;;;;4975821;28;20049;-79
2023/04/13 14:17:52;;;;;;;7.45;1.80;;;10.70;99.90;;;;;;4959996;28;20157;-79
2023/04/13 14:20:18;;;;;;;14.52;1.90;;;10.80;99.90;;;;;;4976034;28;20232;-81
2023/04/13 14:22:44;;;;;;;11.02;2.35;;;10.90;99.90;;;;;;4976004;28;20034;-77
2023/04/13 14:25:10;;;;;;;10.15;1.98;;;11.00;99.90;;;;;;4960022;28;20038;-79
2023/04/13 14:27:36;;;;;;;6.45;1.42;;;11.20;99.90;;;;;;4976071;28;20046;-80
2023/04/13 14:30:03;;;;;;;6.88;1.02;;;11.30;99.90;;;;;;4975807;28;20085;-79
2023/04/13 14:32:28;;;;;;;10.25;2.10;;;11.30;99.90;;;;;;4975564;28;20043;-79
2023/04/13 14:34:58;;;;;;;6.32;1.50;;;11.10;99.90;;;;;;4975876;28;20034;-77
2023/04/13 14:37:26;;;;;;;6.07;1.27;;;11.10;99.90;;;;;;4975929;28;20126;-81
2023/04/13 14:39:53;;;;;;;6.18;1.20;;;10.90;99.90;;;;;;4976457;28;20049;-78
2023/04/13 14:42:20;;;;;;;7.45;1.30;;;10.80;99.90;;;;;;4979258;28;20398;-80
2023/04/13 14:44:46;;;;;;;9.25;1.40;;;10.70;99.90;;;;;;4979975;28;20044;-79
2023/04/13 14:47:14;;;;;;;8.23;1.20;;;10.70;99.90;;;;;;4996887;28;20113;-77
2023/04/13 14:49:42;;;;;;;9.77;1.38;;;10.70;99.90;;;;;;4979319;28;20081;-81
2023/04/13 14:52:08;;;;;;;11.00;2.17;;;10.90;99.90;;;;;;4979002;28;20042;-77
2023/04/13 14:54:34;;;;;;;9.23;1.50;;;11.00;99.90;;;;;;4979401;28;20368;-79
2023/04/13 14:57:01;;;;;;;9.05;2.30;;;11.10;99.90;;;;;;4979541;28;20486;-79
2023/04/13 14:59:27;;;;;;;9.38;1.70;;;11.10;99.90;;;;;;4979152;28;20083;-80
2023/04/13 15:01:54;;;;;;;11.02;2.22;;;11.10;99.90;;;;;;4978957;28;20042;-79
2023/04/13 15:04:19;;;;;;;11.68;1.85;;;11.10;99.90;;;;;;4979159;28;20153;-78
2023/04/13 15:06:48;;;;;;;11.65;1.83;;;11.00;99.90;;;;;;4979059;28;20143;-80
2023/04/13 15:09:14;;;;;;;13.35;2.30;;;11.00;99.90;;;;;;4978951;28;20046;-79
2023/04/13 15:11:40;;;;;;;10.63;2.53;;;11.00;99.90;;;;;;4978899;28;20054;-80
2023/04/13 15:14:06;;;;;;;9.63;2.20;;;11.00;99.90;;;;;;4996571;28;20038;-81
2023/04/13 15:16:31;;;;;;;13.15;2.67;;;11.00;99.90;;;;;;4978688;28;20034;-77
2023/04/13 15:18:58;;;;;;;13.90;1.90;;;11.00;99.90;;;;;;4978821;28;20042;-80
2023/04/13 15:21:23;;;;;;;8.73;1.60;;;11.00;99.90;;;;;;4966122;28;20074;-77
2023/04/13 15:23:49;;;;;;;12.38;2.38;;;11.10;99.90;;;;;;4962076;28;20042;-78
2023/04/13 15:26:18;;;;;;;9.48;1.77;;;11.20;99.90;;;;;;4978564;28;20414;-80
2023/04/13 15:28:44;;;;;;;11.70;1.60;;;11.70;99.90;;;;;;4978496;28;20501;-79
2023/04/13 15:31:10;;;;;;;8.45;1.33;;;11.80;99.90;;;;;;4962224;28;20495;-76
2023/04/13 15:33:36;;;;;;;12.05;1.65;;;11.60;99.90;;;;;;4978149;28;20039;-79
2023/04/13 15:36:03;;;;;;;10.95;2.42;;;11.60;99.90;;;;;;4978483;28;20042;-77
2023/04/13 15:38:28;;;;;;;11.05;1.75;;;11.70;99.90;;;;;;4962236;28;20412;-80
2023/04/13 15:40:54;;;;;;;7.00;1.55;;;12.00;99.90;;;;;;4978243;28;20034;-76
2023/04/13 15:43:20;;;;;;;11.88;1.65;;;12.00;99.90;;;;;;4978810;28;20053;-76
2023/04/13 15:45:46;;;;;;;10.02;2.22;;;11.90;99.90;;;;;;4979326;28;20042;-80
2023/04/13 15:48:11;;;;;;;11.38;2.08;;;12.00;99.90;;;;;;4980293;28;20214;-76
2023/04/13 15:50:37;;;;;;;11.90;1.77;;;12.10;99.90;;;;;;4986962;28;20097;-77
2023/04/13 15:53:04;;;;;;;14.13;2.92;;;12.10;99.90;;;;;;4981286;28;20406;-76